Time;durP1;ratioP1;P1;durP2;ratioP2;P2;SDS_P1;SDS_P2;PMS_P1;PMS_P2;Temp;Humidity;BMP_temperature;BMP_pressure;BME280_temperature;BME280_humidity;BME280_pressure;Samples;Min_cycle;Max_cycle;Signal;HPM_P1;HPM_P2
2021/06/11 00:00:13;;;;;;;12.00;10.83;;;16.60;99.90;;;;;;4978976;28;20500;-46
2021/06/11 00:02:42;;;;;;;11.63;10.60;;;16.60;99.90;;;;;;4974534;28;20484;-52
2021/06/11 00:05:11;;;;;;;13.03;10.87;;;16.50;99.90;;;;;;4972707;28;20470;-47
2021/06/11 00:07:39;;;;;;;11.40;10.40;;;16.40;99.90;;;;;;4978424;28;20462;-48
2021/06/11 00:10:10;;;;;;;12.00;10.90;;;16.40;99.90;;;;;;4978659;28;20787;-51
2021/06/11 00:12:37;;;;;;;12.77;11.63;;;16.40;99.90;;;;;;4978161;28;20805;-52
2021/06/11 00:15:05;;;;;;;11.93;11.00;;;16.40;99.90;;;;;;4978994;28;20469;-55
2021/06/11 00:17:35;;;;;;;11.40;10.50;;;16.30;99.90;;;;;;4978556;28;20465;-49
2021/06/11 00:20:01;;;;;;;11.53;10.63;;;16.30;99.90;;;;;;4978758;28;20445;-53
2021/06/11 00:22:28;;;;;;;11.80;10.80;;;16.30;99.90;;;;;;4979175;28;20450;-47
2021/06/11 00:24:56;;;;;;;12.60;11.50;;;16.30;99.90;;;;;;4977762;28;20470;-52
2021/06/11 00:27:23;;;;;;;12.30;11.00;;;16.20;99.90;;;;;;4978005;28;20470;-47
2021/06/11 00:29:49;;;;;;;11.83;10.90;;;16.20;99.90;;;;;;4978516;28;20548;-49
2021/06/11 00:32:18;;;;;;;13.27;12.07;;;16.20;99.90;;;;;;4977906;28;20496;-49
2021/06/11 00:34:45;;;;;;;12.70;11.60;;;16.10;99.90;;;;;;4971149;28;20469;-45
2021/06/11 00:37:12;;;;;;;11.83;10.83;;;16.10;99.90;;;;;;4978086;28;20462;-54
2021/06/11 00:39:39;;;;;;;12.73;11.63;;;16.10;99.90;;;;;;4977959;28;20469;-51
2021/06/11 00:42:10;;;;;;;13.30;11.97;;;16.00;99.90;;;;;;4977945;28;20440;-47
2021/06/11 00:44:40;;;;;;;13.40;12.30;;;16.00;99.90;;;;;;4978692;28;20474;-53
2021/06/11 00:47:06;;;;;;;13.67;12.57;;;16.00;99.90;;;;;;4977906;28;20919;-52
2021/06/11 00:49:33;;;;;;;14.17;13.07;;;15.90;99.90;;;;;;4978537;28;20465;-52
2021/06/11 00:52:00;;;;;;;13.20;12.20;;;15.90;99.90;;;;;;4977767;28;20468;-46
2021/06/11 00:54:28;;;;;;;12.20;11.30;;;15.90;99.90;;;;;;4978308;28;20730;-46
2021/06/11 00:57:01;;;;;;;12.90;11.70;;;15.90;99.90;;;;;;4978018;28;20444;-46
2021/06/11 00:59:29;;;;;;;11.67;10.77;;;15.90;99.90;;;;;;4978144;28;20969;-47
2021/06/11 01:01:56;;;;;;;14.47;13.03;;;15.80;99.90;;;;;;4978410;28;20470;-47
2021/06/11 01:04:22;;;;;;;14.80;13.33;;;15.80;99.90;;;;;;4978387;28;20470;-52
2021/06/11 01:06:50;;;;;;;13.10;11.77;;;15.80;99.90;;;;;;4961735;28;20884;-51
2021/06/11 01:09:20;;;;;;;13.03;11.93;;;15.80;99.90;;;;;;4977542;28;20458;-49
2021/06/11 01:11:48;;;;;;;12.77;11.60;;;15.70;99.90;;;;;;4977627;28;20493;-46
2021/06/11 01:14:16;;;;;;;14.37;13.00;;;15.70;99.90;;;;;;4977981;28;20466;-49
2021/06/11 01:16:44;;;;;;;13.10;12.10;;;15.60;99.90;;;;;;4977764;28;20461;-45
2021/06/11 01:19:15;;;;;;;12.43;11.13;;;15.60;99.90;;;;;;4978078;28;20473;-46
2021/06/11 01:21:50;;;;;;;14.13;12.93;;;15.50;99.90;;;;;;4970229;28;20470;-46
2021/06/11 01:24:22;;;;;;;14.30;12.90;;;15.50;99.90;;;;;;4977392;28;20464;-46
2021/06/11 01:26:51;;;;;;;13.60;12.50;;;15.50;99.90;;;;;;4977463;28;20469;-50
2021/06/11 01:29:23;;;;;;;13.10;11.90;;;15.50;99.90;;;;;;4978127;28;20524;-52
2021/06/11 01:31:53;;;;;;;14.00;12.73;;;15.50;99.90;;;;;;4978093;28;20802;-48
2021/06/11 01:34:24;;;;;;;13.47;12.47;;;15.40;99.90;;;;;;4977589;28;20473;-49
2021/06/11 01:36:55;;;;;;;12.87;11.53;;;15.40;99.90;;;;;;4978386;28;20472;-48
2021/06/11 01:39:23;;;;;;;12.27;11.37;;;15.40;99.90;;;;;;4981438;28;20470;-49
2021/06/11 01:41:55;;;;;;;12.60;11.50;;;15.40;99.90;;;;;;4981360;28;20857;-49
2021/06/11 01:44:24;;;;;;;13.37;12.07;;;15.50;99.90;;;;;;4981170;28;20528;-52
2021/06/11 01:46:54;;;;;;;12.60;11.37;;;15.40;99.90;;;;;;4981238;28;20466;-53
2021/06/11 01:49:22;;;;;;;13.67;12.37;;;15.40;99.90;;;;;;4981319;28;20436;-47
2021/06/11 01:51:50;;;;;;;13.20;12.10;;;15.30;99.90;;;;;;4981317;28;20520;-53
2021/06/11 01:54:19;;;;;;;13.23;12.03;;;15.30;99.90;;;;;;4980630;28;20465;-54
2021/06/11 01:56:46;;;;;;;13.63;12.60;;;15.20;99.90;;;;;;4980753;28;20527;-50
2021/06/11 01:59:16;;;;;;;13.70;12.60;;;15.20;99.90;;;;;;4980850;28;20907;-46
2021/06/11 02:01:43;;;;;;;12.73;11.43;;;15.10;99.90;;;;;;4981401;28;20466;-48
2021/06/11 02:04:11;;;;;;;13.27;12.07;;;15.10;99.90;;;;;;4969878;28;20958;-47
2021/06/11 02:06:40;;;;;;;13.60;12.50;;;15.00;99.90;;;;;;4961195;28;20599;-50
2021/06/11 02:09:08;;;;;;;14.20;13.00;;;15.00;99.90;;;;;;4960967;28;20531;-52
2021/06/11 02:11:36;;;;;;;14.50;13.30;;;14.90;99.90;;;;;;4961678;29;20509;-46
2021/06/11 02:14:04;;;;;;;14.47;13.37;;;14.90;99.90;;;;;;4960748;28;20470;-50
2021/06/11 02:16:33;;;;;;;13.63;12.33;;;14.80;99.90;;;;;;4961647;29;20486;-49
2021/06/11 02:19:01;;;;;;;14.97;13.67;;;14.80;99.90;;;;;;4961304;29;20467;-45
2021/06/11 02:21:29;;;;;;;15.23;13.93;;;14.70;99.90;;;;;;4961541;28;20470;-47
2021/06/11 02:23:58;;;;;;;15.83;14.53;;;14.70;99.90;;;;;;4961330;28;20488;-48
2021/06/11 02:26:28;;;;;;;14.47;13.27;;;14.70;99.90;;;;;;4961205;29;20466;-46
2021/06/11 02:28:54;;;;;;;14.20;13.10;;;14.60;99.90;;;;;;4961284;28;20471;-45
2021/06/11 02:31:21;;;;;;;14.07;12.87;;;14.60;99.90;;;;;;4960811;29;20502;-48
2021/06/11 02:33:49;;;;;;;16.03;14.70;;;14.50;99.90;;;;;;4961256;29;20470;-52
2021/06/11 02:36:16;;;;;;;14.20;13.03;;;14.50;99.90;;;;;;4961125;29;20441;-48
2021/06/11 02:38:48;;;;;;;15.23;13.97;;;14.50;99.90;;;;;;4952955;28;20785;-52
2021/06/11 02:41:20;;;;;;;15.10;13.80;;;14.50;99.90;;;;;;4961280;29;20463;-56
2021/06/11 02:43:49;;;;;;;16.27;14.93;;;14.40;99.90;;;;;;4960518;29;20467;-55
2021/06/11 02:46:18;;;;;;;14.93;13.63;;;14.40;99.90;;;;;;4960976;29;20900;-54
2021/06/11 02:48:50;;;;;;;15.80;14.17;;;14.40;99.90;;;;;;4959506;28;20517;-56
2021/06/11 02:51:23;;;;;;;14.97;13.67;;;14.40;99.90;;;;;;4960629;29;20923;-56
2021/06/11 02:53:51;;;;;;;14.63;13.40;;;14.40;99.90;;;;;;4960856;29;20521;-55
2021/06/11 02:56:20;;;;;;;15.03;13.83;;;14.30;99.90;;;;;;4960635;29;20466;-56
2021/06/11 02:58:52;;;;;;;14.37;13.13;;;14.30;99.90;;;;;;4960667;29;20506;-49
2021/06/11 03:01:20;;;;;;;15.53;14.23;;;14.30;99.90;;;;;;4960665;29;20808;-53
2021/06/11 03:03:50;;;;;;;14.77;13.67;;;14.30;99.90;;;;;;4963460;28;20795;-52
2021/06/11 03:06:19;;;;;;;15.47;14.27;;;14.30;99.90;;;;;;4979325;28;20968;-51
2021/06/11 03:08:49;;;;;;;16.17;14.77;;;14.30;99.90;;;;;;4979120;28;20466;-50
2021/06/11 03:11:19;;;;;;;16.17;14.63;;;14.20;99.90;;;;;;4979716;28;20497;-49
2021/06/11 03:13:48;;;;;;;14.73;13.43;;;14.20;99.90;;;;;;4980048;28;20462;-49
2021/06/11 03:16:15;;;;;;;15.40;14.20;;;14.10;99.90;;;;;;4980031;28;20448;-50
2021/06/11 03:18:45;;;;;;;14.37;13.27;;;14.10;99.90;;;;;;4979638;28;20482;-48
2021/06/11 03:21:18;;;;;;;15.77;14.27;;;14.00;99.90;;;;;;4979333;28;20872;-50
2021/06/11 03:23:50;;;;;;;16.40;14.77;;;14.10;99.90;;;;;;4979483;28;20472;-48
2021/06/11 03:26:24;;;;;;;15.60;14.10;;;14.10;99.90;;;;;;4979007;28;20477;-49
2021/06/11 03:28:54;;;;;;;15.10;13.80;;;14.10;99.90;;;;;;4979324;28;20902;-52
2021/06/11 03:31:25;;;;;;;15.70;14.50;;;14.00;99.90;;;;;;4979284;28;20508;-53
2021/06/11 03:33:57;;;;;;;15.83;14.40;;;14.00;99.90;;;;;;4979626;28;20440;-55
2021/06/11 03:36:32;;;;;;;15.70;14.40;;;14.00;99.90;;;;;;4979338;28;20539;-50
2021/06/11 04:15:55;;;;;;;15.27;13.90;;;14.30;99.90;;;;;;2706159;23;20924;-56
2021/06/11 04:52:20;;;;;;;16.70;15.10;;;15.30;99.90;;;;;;3992026;23;20488;-49
2021/06/11 04:54:47;;;;;;;19.33;15.80;;;15.40;99.90;;;;;;4998818;28;20465;-46
2021/06/11 04:57:14;;;;;;;17.03;15.53;;;15.40;99.90;;;;;;4998164;28;20504;-49
2021/06/11 04:59:41;;;;;;;16.37;14.97;;;15.50;99.90;;;;;;4997742;28;20464;-47
2021/06/11 05:02:07;;;;;;;17.07;15.37;;;15.60;99.90;;;;;;4994405;28;20469;-46
2021/06/11 05:04:34;;;;;;;17.27;15.60;;;15.70;99.90;;;;;;4988316;28;20497;-47
2021/06/11 05:07:01;;;;;;;17.53;15.70;;;15.80;99.90;;;;;;4997149;28;20866;-46
2021/06/11 05:09:29;;;;;;;18.63;16.93;;;15.90;99.90;;;;;;4996714;28;20473;-50
2021/06/11 05:11:56;;;;;;;19.20;17.50;;;15.90;99.90;;;;;;4997840;28;20519;-51
2021/06/11 05:14:23;;;;;;;17.50;16.10;;;16.00;99.90;;;;;;5000578;28;20472;-52
2021/06/11 05:16:49;;;;;;;17.53;16.17;;;16.00;99.90;;;;;;5002066;28;20838;-48
2021/06/11 05:19:16;;;;;;;18.50;16.73;;;16.10;99.90;;;;;;5000668;28;20460;-46
2021/06/11 05:21:46;;;;;;;18.23;16.47;;;16.20;99.90;;;;;;5000894;28;20523;-46
2021/06/11 05:24:15;;;;;;;18.67;16.77;;;16.30;99.90;;;;;;5001505;28;20435;-48
2021/06/11 05:26:46;;;;;;;17.87;16.20;;;16.40;99.90;;;;;;5001343;28;20555;-49
2021/06/11 05:29:12;;;;;;;18.13;16.53;;;16.50;99.90;;;;;;5001725;28;20500;-47
2021/06/11 05:31:39;;;;;;;17.17;15.77;;;16.60;99.90;;;;;;5001742;28;20551;-46
2021/06/11 05:34:05;;;;;;;16.83;15.50;;;16.80;99.90;;;;;;5000934;28;20759;-52
2021/06/11 05:36:34;;;;;;;16.13;14.80;;;16.90;99.90;;;;;;5000894;28;20468;-50
2021/06/11 05:39:01;;;;;;;17.27;15.73;;;17.00;99.90;;;;;;5000477;28;20465;-52
2021/06/11 05:41:28;;;;;;;18.40;16.83;;;17.20;99.90;;;;;;5000561;28;20464;-47
2021/06/11 05:43:56;;;;;;;17.37;15.97;;;17.40;99.90;;;;;;5000401;28;20465;-45
2021/06/11 05:46:22;;;;;;;17.70;16.17;;;17.70;99.90;;;;;;5000616;28;20479;-48
2021/06/11 05:48:49;;;;;;;18.33;16.60;;;18.00;99.90;;;;;;4999980;28;20468;-52
2021/06/11 05:51:17;;;;;;;16.47;15.07;;;18.30;99.90;;;;;;4999049;28;20505;-52
2021/06/11 05:53:43;;;;;;;18.90;15.40;;;18.60;99.90;;;;;;4998140;28;20469;-46
2021/06/11 05:56:10;;;;;;;16.67;15.27;;;18.90;99.90;;;;;;4998373;28;20761;-51
2021/06/11 05:58:39;;;;;;;15.90;14.30;;;19.20;99.90;;;;;;5000094;28;20464;-53
2021/06/11 06:01:07;;;;;;;17.77;16.13;;;19.50;99.90;;;;;;5000396;28;20898;-51
2021/06/11 06:03:34;;;;;;;16.60;15.10;;;19.70;99.90;;;;;;4994966;28;20523;-46
2021/06/11 06:06:02;;;;;;;18.37;16.87;;;20.00;99.90;;;;;;4997710;28;20481;-46
2021/06/11 06:08:29;;;;;;;17.20;15.60;;;20.30;99.90;;;;;;5000455;28;20814;-46
2021/06/11 06:10:56;;;;;;;16.53;14.83;;;20.60;99.90;;;;;;5001302;28;20956;-45
2021/06/11 06:13:22;;;;;;;16.77;15.37;;;20.90;99.90;;;;;;5000861;28;20457;-46
2021/06/11 06:15:54;;;;;;;16.80;15.30;;;21.00;99.90;;;;;;5000080;28;20519;-46
2021/06/11 06:18:24;;;;;;;16.40;15.07;;;21.40;99.90;;;;;;4999913;28;20547;-48
2021/06/11 06:20:51;;;;;;;16.00;14.73;;;21.50;99.90;;;;;;4999688;28;20560;-47
2021/06/11 06:23:18;;;;;;;16.40;14.60;;;21.80;99.90;;;;;;4999194;28;20472;-49
2021/06/11 06:25:44;;;;;;;15.67;14.23;;;22.20;99.90;;;;;;4999734;28;20472;-48
2021/06/11 06:28:11;;;;;;;16.30;15.00;;;22.20;99.90;;;;;;5000610;28;20523;-46
2021/06/11 06:30:38;;;;;;;17.30;15.70;;;22.30;99.90;;;;;;5000130;28;20447;-49
2021/06/11 06:33:05;;;;;;;15.83;14.40;;;22.50;99.90;;;;;;5000215;28;20523;-49
2021/06/11 06:35:35;;;;;;;17.47;15.73;;;22.60;99.90;;;;;;5000180;28;20468;-53
2021/06/11 06:38:02;;;;;;;17.00;15.47;;;23.10;99.90;;;;;;4999769;28;20804;-56
2021/06/11 06:40:28;;;;;;;16.70;15.20;;;23.30;99.90;;;;;;4999864;28;20534;-49
2021/06/11 06:42:57;;;;;;;15.83;14.53;;;23.60;99.90;;;;;;4999923;28;20472;-49
2021/06/11 06:45:24;;;;;;;17.40;15.70;;;23.90;98.40;;;;;;4999519;28;20956;-51
2021/06/11 06:47:50;;;;;;;17.07;15.77;;;24.30;96.30;;;;;;4999440;28;20464;-52
2021/06/11 06:50:20;;;;;;;16.50;15.00;;;24.50;97.10;;;;;;4999729;28;20490;-52
2021/06/11 06:52:53;;;;;;;16.67;15.17;;;24.80;93.90;;;;;;4999956;28;20500;-56
2021/06/11 06:55:23;;;;;;;16.37;15.00;;;25.10;92.60;;;;;;5000095;28;20901;-54
2021/06/11 06:57:51;;;;;;;17.50;16.03;;;25.20;84.50;;;;;;4999579;28;20461;-49
2021/06/11 07:00:18;;;;;;;16.23;14.63;;;25.30;95.30;;;;;;4999094;28;20468;-50
2021/06/11 07:02:45;;;;;;;17.00;15.47;;;25.40;88.60;;;;;;4995716;28;20898;-48
2021/06/11 07:05:14;;;;;;;16.90;15.40;;;25.50;86.60;;;;;;4995691;28;20469;-50
2021/06/11 07:07:44;;;;;;;16.83;15.03;;;25.80;81.90;;;;;;4998627;28;20508;-46
2021/06/11 07:10:13;;;;;;;23.13;14.70;;;25.90;92.70;;;;;;4998662;28;20792;-46
2021/06/11 07:12:43;;;;;;;16.23;14.93;;;26.10;88.20;;;;;;4999187;28;20551;-48
2021/06/11 07:15:12;;;;;;;20.10;16.00;;;26.20;84.40;;;;;;4999883;28;20465;-48
2021/06/11 07:17:39;;;;;;;18.67;16.97;;;25.80;76.90;;;;;;4999431;28;20497;-47
2021/06/11 07:20:09;;;;;;;17.60;15.90;;;26.00;83.30;;;;;;4999252;28;20468;-55
2021/06/11 08:03:43;;;;;;;17.13;15.60;;;27.30;72.40;;;;;;3005333;23;20537;-52
2021/06/11 08:06:11;;;;;;;15.47;13.97;;;27.10;72.20;;;;;;4977637;28;20438;-53
2021/06/11 08:08:38;;;;;;;19.80;15.67;;;27.10;68.70;;;;;;4977489;28;20460;-50
2021/06/11 08:11:05;;;;;;;15.50;13.90;;;26.60;72.50;;;;;;4977120;28;20791;-55
2021/06/11 08:51:59;;;;;;;17.07;15.47;;;29.90;58.70;;;;;;5000224;28;20492;-55
2021/06/11 08:57:03;;;;;;;17.80;16.20;;;28.70;69.00;;;;;;5016824;23;20478;-52
2021/06/11 08:59:30;;;;;;;17.50;15.60;;;28.90;65.60;;;;;;4982307;28;20460;-52
2021/06/11 09:01:57;;;;;;;20.00;17.43;;;28.80;61.00;;;;;;4981896;28;20552;-52
2021/06/11 09:04:41;;;;;;;19.33;17.37;;;28.20;64.50;;;;;;4972809;28;20765;-48
2021/06/11 09:07:25;;;;;;;18.93;16.93;;;28.40;66.80;;;;;;4982154;28;20457;-53
2021/06/11 09:09:56;;;;;;;19.10;17.10;;;28.40;65.20;;;;;;4981947;28;20469;-53
2021/06/11 09:12:34;;;;;;;16.90;15.20;;;28.10;63.70;;;;;;4982176;28;20454;-51
2021/06/11 09:15:05;;;;;;;17.63;14.50;;;27.00;64.30;;;;;;4982054;28;20480;-51
2021/06/11 09:17:44;;;;;;;17.73;15.63;;;26.30;71.00;;;;;;4983110;28;20811;-52
2021/06/11 09:20:16;;;;;;;21.70;17.93;;;26.40;74.30;;;;;;4982338;28;20483;-54
2021/06/11 09:22:49;;;;;;;14.93;13.63;;;26.90;72.20;;;;;;4981503;28;20771;-47
2021/06/11 09:25:40;;;;;;;15.43;13.93;;;27.40;71.60;;;;;;4981384;28;20469;-49
2021/06/11 09:28:09;;;;;;;14.57;13.17;;;27.70;68.10;;;;;;4981941;28;20524;-49
2021/06/11 09:30:48;;;;;;;17.03;15.23;;;28.00;67.50;;;;;;4981484;28;20469;-51
2021/06/11 09:33:17;;;;;;;18.23;16.40;;;28.60;72.60;;;;;;4981884;28;20470;-54
2021/06/11 09:35:46;;;;;;;16.10;14.50;;;28.60;67.60;;;;;;4981996;28;20464;-49
2021/06/11 09:38:18;;;;;;;18.10;16.40;;;28.80;64.80;;;;;;4981587;28;20548;-51
2021/06/11 09:40:47;;;;;;;16.27;14.87;;;28.50;60.80;;;;;;4981559;28;20465;-54
2021/06/11 09:43:14;;;;;;;15.60;14.23;;;28.40;70.10;;;;;;4981139;28;20453;-56
2021/06/11 09:45:41;;;;;;;16.10;14.60;;;28.90;63.70;;;;;;4965184;28;20489;-51
2021/06/11 09:48:19;;;;;;;19.10;15.57;;;29.00;65.60;;;;;;4978833;28;20457;-53
2021/06/11 09:50:51;;;;;;;20.17;18.37;;;29.00;60.70;;;;;;4970397;28;20512;-51
2021/06/11 09:53:28;;;;;;;18.97;17.00;;;29.30;65.20;;;;;;4979701;28;20460;-54
2021/06/11 09:55:56;;;;;;;19.33;17.33;;;28.10;64.00;;;;;;4989422;28;20926;-52
2021/06/11 10:35:47;;;;;;;15.63;14.03;;;26.40;72.60;;;;;;3924640;23;20789;-54
2021/06/11 10:38:32;;;;;;;16.67;13.07;;;27.30;75.80;;;;;;5001350;28;20457;-54
2021/06/11 10:41:00;;;;;;;13.60;12.57;;;28.50;70.00;;;;;;4999658;28;20461;-56
2021/06/11 10:43:35;;;;;;;15.07;13.87;;;29.20;74.90;;;;;;4999641;28;20545;-54
2021/06/11 10:46:03;;;;;;;12.27;11.27;;;29.70;64.00;;;;;;4999970;28;20496;-54
2021/06/11 10:49:00;;;;;;;10.73;9.83;;;30.40;63.10;;;;;;5000202;28;20552;-54
2021/06/11 10:51:36;;;;;;;11.27;10.20;;;31.00;62.00;;;;;;5002438;28;20452;-56
2021/06/11 10:54:26;;;;;;;10.60;9.67;;;30.80;55.90;;;;;;4999726;28;20905;-54
2021/06/11 10:57:15;;;;;;;10.63;6.43;;;31.00;52.10;;;;;;4999525;28;20460;-53
2021/06/11 10:59:43;;;;;;;9.77;8.83;;;31.30;52.70;;;;;;4999270;28;20901;-54
2021/06/11 11:02:10;;;;;;;10.30;9.53;;;31.90;50.40;;;;;;4999938;28;20768;-50
2021/06/11 11:04:39;;;;;;;11.23;10.27;;;32.20;50.30;;;;;;4990685;28;20818;-56
2021/06/11 11:07:35;;;;;;;12.40;11.50;;;32.40;52.60;;;;;;4998618;28;20493;-55
2021/06/11 11:10:06;;;;;;;12.07;11.00;;;31.80;50.20;;;;;;4989724;28;20468;-55
2021/06/11 11:13:00;;;;;;;10.63;9.80;;;30.80;55.30;;;;;;4999342;28;20511;-51
2021/06/11 11:15:34;;;;;;;11.47;10.53;;;31.10;54.00;;;;;;4999305;28;20472;-56
2021/06/11 11:18:01;;;;;;;11.13;9.80;;;31.80;53.30;;;;;;4999738;28;20479;-55
2021/06/11 11:20:33;;;;;;;12.43;11.53;;;31.70;54.30;;;;;;4998837;28;20924;-53
2021/06/11 11:23:03;;;;;;;11.20;10.30;;;31.70;49.80;;;;;;4998647;28;20492;-55
2021/06/11 11:25:30;;;;;;;13.90;12.63;;;32.20;51.30;;;;;;4997371;28;20464;-57
2021/06/11 11:27:59;;;;;;;11.33;10.23;;;32.50;49.60;;;;;;4997595;28;20773;-51
2021/06/11 11:30:27;;;;;;;9.27;7.67;;;32.30;52.10;;;;;;4998277;28;20427;-55
2021/06/11 11:32:55;;;;;;;7.80;7.30;;;32.80;49.10;;;;;;4998623;28;20456;-56
2021/06/11 11:35:22;;;;;;;22.23;12.40;;;33.20;47.70;;;;;;4998156;28;20821;-56
2021/06/11 11:37:52;;;;;;;10.10;9.07;;;32.00;46.80;;;;;;4998973;28;20747;-56
2021/06/11 11:40:25;;;;;;;8.17;7.53;;;31.90;49.50;;;;;;4998885;28;20523;-55
2021/06/11 11:42:53;;;;;;;8.33;7.53;;;32.50;50.10;;;;;;4998418;28;20495;-54
2021/06/11 11:45:24;;;;;;;7.70;7.10;;;32.50;48.60;;;;;;4998712;28;20464;-56
2021/06/11 11:47:51;;;;;;;8.13;7.43;;;33.10;47.60;;;;;;4998878;28;20471;-52
2021/06/11 11:50:18;;;;;;;9.07;8.47;;;33.00;46.50;;;;;;4998803;28;20569;-53
2021/06/11 11:52:45;;;;;;;10.73;9.80;;;32.20;48.00;;;;;;4998706;28;20459;-48
2021/06/11 11:55:12;;;;;;;8.97;8.37;;;30.50;50.30;;;;;;4998053;28;20527;-47
2021/06/11 11:57:42;;;;;;;9.00;8.30;;;29.20;52.50;;;;;;4998409;28;20473;-46
2021/06/11 12:00:10;;;;;;;10.03;9.23;;;29.20;55.00;;;;;;4998645;28;20556;-48
2021/06/11 12:02:37;;;;;;;8.10;7.43;;;29.00;53.40;;;;;;4994393;28;20474;-53
2021/06/11 12:05:06;;;;;;;9.33;8.07;;;29.70;56.00;;;;;;4993650;28;20473;-50
2021/06/11 12:07:33;;;;;;;7.70;7.00;;;29.90;54.40;;;;;;4997944;28;20457;-52
2021/06/11 12:10:00;;;;;;;7.50;6.90;;;29.90;54.10;;;;;;4995159;28;20464;-51
2021/06/11 12:12:29;;;;;;;7.73;7.13;;;29.70;55.60;;;;;;4996204;28;20466;-48
2021/06/11 12:14:57;;;;;;;9.83;7.80;;;28.80;54.30;;;;;;4996001;28;20460;-51
2021/06/11 12:17:24;;;;;;;8.23;7.53;;;29.30;54.60;;;;;;4996927;28;20493;-54
2021/06/11 12:19:55;;;;;;;8.57;7.87;;;30.10;52.90;;;;;;4998330;28;20901;-52
2021/06/11 12:22:22;;;;;;;7.90;7.20;;;30.50;55.00;;;;;;4996856;28;20501;-55
2021/06/11 12:24:50;;;;;;;7.50;7.00;;;31.20;54.20;;;;;;4997889;28;20917;-52
2021/06/11 12:27:16;;;;;;;8.43;7.83;;;31.40;52.00;;;;;;4997760;28;20590;-54
2021/06/11 12:29:43;;;;;;;7.60;6.73;;;31.10;50.80;;;;;;4998129;28;20465;-55
2021/06/11 12:32:11;;;;;;;8.57;7.73;;;31.50;49.60;;;;;;4997752;28;20461;-55
2021/06/11 12:34:37;;;;;;;6.40;6.00;;;31.80;50.30;;;;;;4997978;28;20531;-52
2021/06/11 12:37:08;;;;;;;9.40;6.93;;;32.10;52.90;;;;;;4997715;28;20456;-55
2021/06/11 12:39:35;;;;;;;6.83;6.33;;;31.80;51.20;;;;;;4997755;28;20467;-56
2021/06/11 12:42:11;;;;;;;9.00;7.17;;;30.80;52.10;;;;;;4997549;28;20499;-52
2021/06/11 12:44:37;;;;;;;7.23;6.63;;;31.30;51.20;;;;;;4998122;28;20492;-57
2021/06/11 12:47:05;;;;;;;9.53;8.50;;;31.20;50.90;;;;;;4997911;28;20471;-54
2021/06/11 12:49:35;;;;;;;9.00;8.20;;;31.70;51.40;;;;;;4997763;28;20465;-49
2021/06/11 12:52:05;;;;;;;8.67;7.77;;;31.20;50.30;;;;;;4997347;28;20456;-52
2021/06/11 12:54:38;;;;;;;8.93;8.23;;;30.30;52.30;;;;;;4998040;28;20464;-51
2021/06/11 12:57:05;;;;;;;8.40;7.80;;;29.40;52.70;;;;;;4997433;28;20769;-51
2021/06/11 12:59:34;;;;;;;8.23;7.60;;;29.10;56.30;;;;;;4997565;28;20473;-47
2021/06/11 13:02:01;;;;;;;8.13;7.53;;;29.40;54.90;;;;;;4997485;28;20488;-55
2021/06/11 13:04:28;;;;;;;6.97;6.50;;;29.80;52.80;;;;;;4989444;28;20464;-54
2021/06/11 13:06:56;;;;;;;7.80;7.17;;;29.80;54.10;;;;;;4996840;28;20832;-53
2021/06/11 13:09:22;;;;;;;7.10;6.60;;;29.90;53.20;;;;;;4996373;28;20878;-56
2021/06/11 13:11:49;;;;;;;7.27;6.77;;;30.10;53.60;;;;;;4997687;28;20874;-52
2021/06/11 13:14:16;;;;;;;8.50;6.43;;;30.40;50.80;;;;;;4997288;28;20465;-51
2021/06/11 13:16:43;;;;;;;7.37;6.70;;;29.90;51.80;;;;;;4997316;28;20491;-51
2021/06/11 13:19:09;;;;;;;6.20;5.80;;;29.50;53.30;;;;;;4997731;28;20465;-47
2021/06/11 13:21:37;;;;;;;7.13;6.43;;;29.10;53.40;;;;;;4996780;28;20485;-49
2021/06/11 13:24:06;;;;;;;6.20;5.70;;;29.90;52.30;;;;;;4997386;28;20469;-48
2021/06/11 13:26:35;;;;;;;7.63;6.80;;;30.00;51.40;;;;;;4994793;28;20468;-53
2021/06/11 13:29:01;;;;;;;7.80;7.20;;;30.20;52.40;;;;;;4977862;28;20456;-54
2021/06/11 13:31:31;;;;;;;8.70;6.53;;;29.70;53.20;;;;;;4978098;28;20779;-47
2021/06/11 13:33:57;;;;;;;7.23;6.53;;;29.80;52.80;;;;;;4980511;28;20536;-45
2021/06/11 13:36:24;;;;;;;8.43;6.57;;;29.70;50.40;;;;;;4981720;28;20540;-52
2021/06/11 13:38:51;;;;;;;11.10;6.93;;;30.10;50.40;;;;;;4989161;28;20461;-49
2021/06/11 13:41:23;;;;;;;7.97;7.37;;;29.60;50.00;;;;;;5000998;28;20464;-52
2021/06/11 13:43:51;;;;;;;10.47;6.57;;;29.10;51.00;;;;;;5000893;28;20468;-49
2021/06/11 13:46:17;;;;;;;8.37;7.67;;;28.70;52.80;;;;;;5000951;28;20551;-51
2021/06/11 13:48:44;;;;;;;8.27;7.17;;;28.80;53.30;;;;;;5000411;28;20476;-47
2021/06/11 13:51:11;;;;;;;7.80;7.30;;;28.80;53.00;;;;;;5001130;28;20515;-53
2021/06/11 13:53:38;;;;;;;7.87;6.83;;;29.20;52.10;;;;;;5000858;28;20468;-49
2021/06/11 13:56:08;;;;;;;7.20;6.70;;;29.60;50.60;;;;;;5000748;28;20464;-55
2021/06/11 13:58:36;;;;;;;6.50;6.00;;;29.60;50.70;;;;;;5000886;28;20911;-52
2021/06/11 14:01:04;;;;;;;7.27;6.17;;;30.10;51.70;;;;;;5000344;28;20469;-56
2021/06/11 14:03:30;;;;;;;8.33;7.60;;;30.90;51.50;;;;;;4993486;28;20496;-51
2021/06/11 14:05:57;;;;;;;6.30;5.80;;;31.00;49.20;;;;;;4997726;28;20472;-48
2021/06/11 14:08:24;;;;;;;6.80;6.20;;;30.70;49.60;;;;;;4999414;28;20516;-52
2021/06/11 14:10:53;;;;;;;7.40;6.80;;;31.20;48.00;;;;;;4999587;28;20472;-56
2021/06/11 14:13:20;;;;;;;6.83;6.33;;;31.00;48.80;;;;;;4998608;28;20472;-56
2021/06/11 14:15:48;;;;;;;7.13;6.23;;;30.80;49.30;;;;;;5000254;28;20460;-54
2021/06/11 14:18:15;;;;;;;7.03;6.47;;;30.70;49.70;;;;;;5000733;28;20471;-54
2021/06/11 14:20:42;;;;;;;6.47;5.90;;;30.30;48.60;;;;;;5000004;28;20924;-55
2021/06/11 14:23:09;;;;;;;6.23;5.70;;;30.70;49.50;;;;;;4999982;28;20504;-49
2021/06/11 14:25:42;;;;;;;5.97;5.53;;;31.00;48.50;;;;;;4999891;28;20498;-49
2021/06/11 14:28:08;;;;;;;6.90;6.10;;;30.90;47.50;;;;;;5000478;28;20519;-49
2021/06/11 14:30:35;;;;;;;8.50;6.00;;;30.80;48.50;;;;;;4999883;28;20468;-50
2021/06/11 14:33:05;;;;;;;7.03;5.80;;;31.00;48.20;;;;;;5000401;28;20460;-54
2021/06/11 14:35:33;;;;;;;6.67;4.93;;;31.40;47.90;;;;;;4997892;28;20492;-55
2021/06/11 15:17:35;;;;;;;5.57;5.10;;;29.10;50.60;;;;;;4236424;23;20521;-45
2021/06/11 15:20:05;;;;;;;4.93;4.63;;;28.40;50.70;;;;;;4999430;28;20786;-52
2021/06/11 15:22:32;;;;;;;6.60;5.90;;;28.10;52.10;;;;;;4999238;28;20500;-53
2021/06/11 15:24:58;;;;;;;6.00;5.30;;;27.60;52.80;;;;;;4998966;28;20465;-55
2021/06/11 15:27:25;;;;;;;6.77;5.90;;;27.80;53.30;;;;;;4998697;28;20480;-50
2021/06/11 15:29:51;;;;;;;5.47;4.97;;;27.90;52.90;;;;;;4999592;28;20468;-50
2021/06/11 15:32:18;;;;;;;6.37;5.10;;;27.80;54.20;;;;;;4998967;28;20457;-46
2021/06/11 15:34:47;;;;;;;4.73;4.33;;;27.80;52.80;;;;;;4998540;28;20469;-54
2021/06/11 15:37:14;;;;;;;6.63;4.77;;;27.90;53.30;;;;;;4998844;28;20945;-50
2021/06/11 15:39:42;;;;;;;7.27;3.97;;;28.50;52.20;;;;;;4991037;28;20465;-53
2021/06/11 15:42:12;;;;;;;8.47;5.80;;;28.90;52.10;;;;;;4999515;28;20484;-53
2021/06/11 15:44:39;;;;;;;5.23;4.73;;;28.70;51.80;;;;;;4998936;28;20461;-52
2021/06/11 15:47:05;;;;;;;5.37;4.30;;;28.40;52.50;;;;;;4998615;28;20469;-53
2021/06/11 15:49:32;;;;;;;4.60;4.20;;;28.00;52.30;;;;;;4998916;28;20465;-55
2021/06/11 15:52:00;;;;;;;4.23;3.90;;;28.10;53.50;;;;;;4999377;28;20472;-49
2021/06/11 15:54:26;;;;;;;4.93;4.57;;;28.30;53.10;;;;;;4998452;28;20469;-50
2021/06/11 15:56:53;;;;;;;4.67;4.27;;;28.50;52.80;;;;;;4997989;28;20465;-47
2021/06/11 15:59:21;;;;;;;5.00;4.53;;;28.80;52.10;;;;;;4998114;28;20472;-52
2021/06/11 16:01:47;;;;;;;4.90;4.60;;;28.50;52.20;;;;;;4998094;28;20913;-48
2021/06/11 16:04:14;;;;;;;5.03;4.03;;;28.50;52.30;;;;;;4989506;28;20535;-53
2021/06/11 16:06:40;;;;;;;6.43;4.50;;;28.70;53.00;;;;;;4989647;28;20965;-52
2021/06/11 16:09:09;;;;;;;9.07;4.50;;;28.90;51.20;;;;;;4998003;28;20616;-55
2021/06/11 16:11:36;;;;;;;9.33;4.47;;;28.70;52.10;;;;;;4998623;28;20492;-55
2021/06/11 16:14:02;;;;;;;4.63;3.47;;;28.90;52.30;;;;;;4997546;28;20463;-55
2021/06/11 16:16:32;;;;;;;3.57;3.00;;;28.70;52.70;;;;;;4998226;28;20510;-48
2021/06/11 16:18:59;;;;;;;4.30;3.90;;;29.00;52.10;;;;;;4998155;28;20913;-49
2021/06/11 16:21:25;;;;;;;5.87;5.37;;;29.10;53.10;;;;;;4997837;28;20460;-54
2021/06/11 16:23:54;;;;;;;5.17;4.77;;;29.10;53.10;;;;;;4997895;28;20461;-53
2021/06/11 16:26:22;;;;;;;10.43;9.40;;;28.70;51.80;;;;;;4997715;28;20468;-55
2021/06/11 16:28:51;;;;;;;3.87;3.57;;;28.60;52.80;;;;;;4997762;28;20465;-56
2021/06/11 16:31:18;;;;;;;25.23;5.77;;;28.70;52.80;;;;;;4997957;28;20828;-55